Pemberton, MN (56078)

12:06 PM CDT on June 22, 2018 (GMT -0500)
SW Janesville | | Change Station
Active Advisory: Flood Warning

Elev 1056 ft 44.11 °N, 93.73 °W | Updated 13 minutes ago

Clear
Clear
75.5 °F
Feels Like 77 °F
N
0
Wind Variable Wind from SSE
Gusts 2.0 mph

Today
High -- | Low -- °F
--% Chance of Precip.
Yesterday
High -- | Low -- °F
Precip. -- in
Pressure 29.90 in
Visibility 10.0 miles
Clouds Clear
Heat Index 77 °F
Dew Point 65 °F
Humidity 70%
Rainfall 0.00 in
Snow Depth Not available.
5:32 AM 9:01 PM
Waxing Gibbous, 73% visible
METAR KACQ 221655Z AUTO 00000KT 10SM CLR 22/17 A2990 RMK AO2
Pressure 29.90 in
Visibility 10.0 miles
Clouds Clear
Heat Index 77 °F
Dew Point 65 °F
Humidity 70%
Rainfall 0.00 in
Snow Depth Not available.
5:32 AM 9:01 PM
Waxing Gibbous, 73% visible
METAR KACQ 221655Z AUTO 00000KT 10SM CLR 22/17 A2990 RMK AO2

Get Your Daily Forecast Email!

Thanks for signing up!

Be on the lookout for a verification email in your inbox.

You'll start receiving severe weather alerts in your inbox..

×

10-Day Weather Forecast

Almanac

Astronomy

Jun. 22, 2018 Rise Set
Actual Time
Civil Twilight
Nautical Twilight
Astronomical Twilight
Moon
Length of Visible Light
Length of Day
Tomorrow will be .
, % of the Moon is Illuminated

Today's Extremes

State Highs State Lows

Community

WunderPhotos

Category 6

Welcome to Category 6. This is the collective home for Weather Underground's featured writeups by Dr. Jeff Masters (right), Bob Henson (left), Chris Burt, and other regular contributors.

Nearby

Air Quality

  Air Quality AQ Index Pollutant
Not available.

Snow Depth

Station Depth Elevation

Earthquake Activity

City Distance Mag. Time & Date
Minimum magnitude displayed is 2.5.

Coastal Water Temperatures

Place Temperature

Stations

Nearby Weather Stations

Station Location Temp. Windchill Dew Point Humidity Wind Precip. Elev Updated Type
                   

Watches & Warnings

Flood Warning
Issued: 9:43 AM CDT Jun. 22, 2018 – National Weather Service

... Flood Warning continues for
the Minnesota river at Mankato.
* From Saturday evening to Wednesday evening.
* At 8:30 am Friday the stage was 19.0 feet.
* Minor flooding is forecast.
* Flood stage is 22.0 feet.
* Forecast... rise above flood stage by tomorrow evening and continue
to rise to near 23.9 feet by Monday morning. The river will fall
below flood stage by Wednesday morning.
* Impact... at 24.5 feet... Hwy 99 east of St Peter closed (estimated
level for Spring floods)
* impact... at 21.0 feet... dike patrolling begins in Mankato.


Lat... Lon 4414 9420 4420 9409 4427 9405 4427 9396 4410 9398